sensor_id;sensor_type;location;lat;lon;timestamp;P1;durP1;ratioP1;P2;durP2;ratioP2
9522;SDS011;63165;43.016;25.784;2022-10-16T00:01:33;25.50;;;10.95;;
9522;SDS011;63165;43.016;25.784;2022-10-16T00:04:01;22.33;;;10.00;;
9522;SDS011;63165;43.016;25.784;2022-10-16T00:06:29;23.35;;;9.60;;
9522;SDS011;63165;43.016;25.784;2022-10-16T00:08:57;21.80;;;9.32;;
9522;SDS011;63165;43.016;25.784;2022-10-16T00:11:27;24.77;;;10.15;;
9522;SDS011;63165;43.016;25.784;2022-10-16T00:13:57;23.30;;;9.98;;
9522;SDS011;63165;43.016;25.784;2022-10-16T00:16:25;24.75;;;9.63;;
9522;SDS011;63165;43.016;25.784;2022-10-16T00:18:53;22.08;;;9.80;;
9522;SDS011;63165;43.016;25.784;2022-10-16T00:21:21;45.80;;;16.10;;
9522;SDS011;63165;43.016;25.784;2022-10-16T00:23:53;26.08;;;11.65;;
9522;SDS011;63165;43.016;25.784;2022-10-16T00:26:21;26.70;;;11.25;;
9522;SDS011;63165;43.016;25.784;2022-10-16T00:28:50;25.30;;;11.30;;
9522;SDS011;63165;43.016;25.784;2022-10-16T00:31:18;31.15;;;11.40;;
9522;SDS011;63165;43.016;25.784;2022-10-16T00:33:48;31.02;;;11.65;;
9522;SDS011;63165;43.016;25.784;2022-10-16T00:36:17;26.27;;;10.95;;
9522;SDS011;63165;43.016;25.784;2022-10-16T00:38:46;31.40;;;11.90;;
9522;SDS011;63165;43.016;25.784;2022-10-16T00:41:14;27.50;;;10.70;;
9522;SDS011;63165;43.016;25.784;2022-10-16T00:43:43;21.90;;;9.55;;
9522;SDS011;63165;43.016;25.784;2022-10-16T00:46:26;26.40;;;9.55;;
9522;SDS011;63165;43.016;25.784;2022-10-16T00:51:28;22.05;;;8.43;;
9522;SDS011;63165;43.016;25.784;2022-10-16T00:53:59;23.65;;;8.80;;
9522;SDS011;63165;43.016;25.784;2022-10-16T00:56:27;20.02;;;8.13;;
9522;SDS011;63165;43.016;25.784;2022-10-16T00:58:54;24.05;;;9.55;;
9522;SDS011;63165;43.016;25.784;2022-10-16T01:01:23;25.98;;;9.63;;
9522;SDS011;63165;43.016;25.784;2022-10-16T01:03:50;21.73;;;9.68;;
9522;SDS011;63165;43.016;25.784;2022-10-16T01:06:29;24.00;;;10.07;;
9522;SDS011;63165;43.016;25.784;2022-10-16T01:09:13;22.38;;;9.10;;
9522;SDS011;63165;43.016;25.784;2022-10-16T01:11:49;27.03;;;10.67;;
9522;SDS011;63165;43.016;25.784;2022-10-16T01:14:26;25.20;;;10.32;;
9522;SDS011;63165;43.016;25.784;2022-10-16T01:17:06;29.27;;;10.77;;
9522;SDS011;63165;43.016;25.784;2022-10-16T01:19:44;22.15;;;9.02;;
9522;SDS011;63165;43.016;25.784;2022-10-16T01:22:30;20.15;;;8.52;;
9522;SDS011;63165;43.016;25.784;2022-10-16T01:25:08;20.33;;;7.85;;
9522;SDS011;63165;43.016;25.784;2022-10-16T01:27:43;18.80;;;7.90;;
9522;SDS011;63165;43.016;25.784;2022-10-16T01:30:13;15.80;;;7.53;;
9522;SDS011;63165;43.016;25.784;2022-10-16T01:32:45;17.27;;;8.00;;
9522;SDS011;63165;43.016;25.784;2022-10-16T01:35:19;22.17;;;7.63;;
9522;SDS011;63165;43.016;25.784;2022-10-16T01:37:51;16.55;;;7.45;;
9522;SDS011;63165;43.016;25.784;2022-10-16T01:40:24;22.98;;;8.40;;
9522;SDS011;63165;43.016;25.784;2022-10-16T01:42:56;18.23;;;8.15;;
9522;SDS011;63165;43.016;25.784;2022-10-16T01:45:27;16.92;;;7.25;;
9522;SDS011;63165;43.016;25.784;2022-10-16T01:47:56;20.67;;;7.72;;
9522;SDS011;63165;43.016;25.784;2022-10-16T01:50:25;17.40;;;8.02;;
9522;SDS011;63165;43.016;25.784;2022-10-16T01:52:54;16.95;;;7.70;;
9522;SDS011;63165;43.016;25.784;2022-10-16T01:55:24;19.33;;;7.72;;
9522;SDS011;63165;43.016;25.784;2022-10-16T01:57:57;19.75;;;8.38;;
9522;SDS011;63165;43.016;25.784;2022-10-16T02:00:26;19.85;;;8.07;;
9522;SDS011;63165;43.016;25.784;2022-10-16T02:02:54;16.63;;;7.65;;
9522;SDS011;63165;43.016;25.784;2022-10-16T02:05:24;21.23;;;7.50;;
9522;SDS011;63165;43.016;25.784;2022-10-16T02:07:55;18.63;;;8.55;;
9522;SDS011;63165;43.016;25.784;2022-10-16T02:10:22;20.10;;;7.07;;
9522;SDS011;63165;43.016;25.784;2022-10-16T02:12:58;16.95;;;7.00;;
9522;SDS011;63165;43.016;25.784;2022-10-16T02:15:28;19.83;;;7.45;;
9522;SDS011;63165;43.016;25.784;2022-10-16T02:17:56;17.95;;;7.35;;
9522;SDS011;63165;43.016;25.784;2022-10-16T02:20:25;20.55;;;7.53;;
9522;SDS011;63165;43.016;25.784;2022-10-16T02:22:54;22.58;;;7.50;;
9522;SDS011;63165;43.016;25.784;2022-10-16T02:25:24;16.42;;;8.18;;
9522;SDS011;63165;43.016;25.784;2022-10-16T02:27:59;19.52;;;8.23;;
9522;SDS011;63165;43.016;25.784;2022-10-16T02:30:31;26.27;;;8.70;;
9522;SDS011;63165;43.016;25.784;2022-10-16T02:33:02;22.83;;;7.93;;
9522;SDS011;63165;43.016;25.784;2022-10-16T02:35:33;20.13;;;8.77;;
9522;SDS011;63165;43.016;25.784;2022-10-16T02:38:00;21.42;;;8.93;;
9522;SDS011;63165;43.016;25.784;2022-10-16T02:40:29;20.38;;;8.00;;
9522;SDS011;63165;43.016;25.784;2022-10-16T02:42:58;20.30;;;8.60;;
9522;SDS011;63165;43.016;25.784;2022-10-16T02:45:25;22.23;;;9.35;;
9522;SDS011;63165;43.016;25.784;2022-10-16T02:47:52;23.63;;;8.48;;
9522;SDS011;63165;43.016;25.784;2022-10-16T02:50:20;20.42;;;8.50;;
9522;SDS011;63165;43.016;25.784;2022-10-16T02:52:47;18.88;;;8.45;;
9522;SDS011;63165;43.016;25.784;2022-10-16T02:55:15;25.27;;;9.50;;
9522;SDS011;63165;43.016;25.784;2022-10-16T02:57:42;19.65;;;8.90;;
9522;SDS011;63165;43.016;25.784;2022-10-16T03:00:13;21.98;;;9.32;;
9522;SDS011;63165;43.016;25.784;2022-10-16T03:02:42;20.50;;;8.75;;
9522;SDS011;63165;43.016;25.784;2022-10-16T03:05:09;24.10;;;9.77;;
9522;SDS011;63165;43.016;25.784;2022-10-16T03:07:37;25.60;;;9.38;;
9522;SDS011;63165;43.016;25.784;2022-10-16T03:10:05;24.02;;;10.20;;
9522;SDS011;63165;43.016;25.784;2022-10-16T03:12:33;27.83;;;10.77;;
9522;SDS011;63165;43.016;25.784;2022-10-16T03:15:00;25.42;;;9.80;;
9522;SDS011;63165;43.016;25.784;2022-10-16T03:17:29;22.13;;;9.10;;
9522;SDS011;63165;43.016;25.784;2022-10-16T03:19:56;19.95;;;8.20;;
9522;SDS011;63165;43.016;25.784;2022-10-16T03:22:23;19.40;;;8.10;;
9522;SDS011;63165;43.016;25.784;2022-10-16T03:24:50;16.73;;;7.22;;
9522;SDS011;63165;43.016;25.784;2022-10-16T03:27:18;17.45;;;7.80;;
9522;SDS011;63165;43.016;25.784;2022-10-16T03:29:45;27.30;;;7.97;;
9522;SDS011;63165;43.016;25.784;2022-10-16T03:32:12;19.88;;;7.40;;
9522;SDS011;63165;43.016;25.784;2022-10-16T03:34:40;14.80;;;6.63;;
9522;SDS011;63165;43.016;25.784;2022-10-16T03:37:08;16.95;;;6.80;;
9522;SDS011;63165;43.016;25.784;2022-10-16T03:39:35;20.13;;;7.07;;
9522;SDS011;63165;43.016;25.784;2022-10-16T03:42:02;15.88;;;7.00;;
9522;SDS011;63165;43.016;25.784;2022-10-16T03:44:29;19.58;;;7.05;;
9522;SDS011;63165;43.016;25.784;2022-10-16T03:46:57;19.60;;;7.43;;
9522;SDS011;63165;43.016;25.784;2022-10-16T03:49:24;19.10;;;6.90;;
9522;SDS011;63165;43.016;25.784;2022-10-16T03:51:53;17.45;;;6.97;;
9522;SDS011;63165;43.016;25.784;2022-10-16T03:54:20;19.23;;;7.93;;
9522;SDS011;63165;43.016;25.784;2022-10-16T03:56:47;19.63;;;7.35;;
9522;SDS011;63165;43.016;25.784;2022-10-16T03:59:14;16.27;;;7.43;;
9522;SDS011;63165;43.016;25.784;2022-10-16T04:01:42;19.92;;;7.70;;
9522;SDS011;63165;43.016;25.784;2022-10-16T04:04:09;14.07;;;6.97;;
9522;SDS011;63165;43.016;25.784;2022-10-16T04:06:36;19.60;;;7.60;;
9522;SDS011;63165;43.016;25.784;2022-10-16T04:09:05;22.05;;;8.40;;
9522;SDS011;63165;43.016;25.784;2022-10-16T04:11:32;19.70;;;7.93;;
9522;SDS011;63165;43.016;25.784;2022-10-16T04:13:59;20.05;;;8.55;;
9522;SDS011;63165;43.016;25.784;2022-10-16T04:16:27;19.75;;;7.50;;
9522;SDS011;63165;43.016;25.784;2022-10-16T04:18:54;20.35;;;7.72;;
9522;SDS011;63165;43.016;25.784;2022-10-16T04:21:21;19.25;;;8.13;;
9522;SDS011;63165;43.016;25.784;2022-10-16T04:23:48;17.30;;;8.02;;
9522;SDS011;63165;43.016;25.784;2022-10-16T04:26:17;19.52;;;8.38;;
9522;SDS011;63165;43.016;25.784;2022-10-16T04:28:45;21.30;;;8.25;;
9522;SDS011;63165;43.016;25.784;2022-10-16T04:31:12;17.42;;;7.82;;
9522;SDS011;63165;43.016;25.784;2022-10-16T04:33:41;23.35;;;8.10;;
9522;SDS011;63165;43.016;25.784;2022-10-16T04:36:09;30.80;;;8.43;;
9522;SDS011;63165;43.016;25.784;2022-10-16T04:38:36;32.67;;;7.80;;
9522;SDS011;63165;43.016;25.784;2022-10-16T04:41:04;19.65;;;7.95;;
9522;SDS011;63165;43.016;25.784;2022-10-16T04:43:34;29.20;;;8.73;;
9522;SDS011;63165;43.016;25.784;2022-10-16T04:46:01;25.20;;;8.55;;
9522;SDS011;63165;43.016;25.784;2022-10-16T04:48:30;41.65;;;12.52;;
9522;SDS011;63165;43.016;25.784;2022-10-16T04:50:57;45.08;;;18.30;;
9522;SDS011;63165;43.016;25.784;2022-10-16T04:53:24;51.55;;;14.60;;
9522;SDS011;63165;43.016;25.784;2022-10-16T04:55:51;39.20;;;14.57;;
9522;SDS011;63165;43.016;25.784;2022-10-16T04:58:19;37.78;;;15.20;;
9522;SDS011;63165;43.016;25.784;2022-10-16T05:00:47;44.80;;;17.30;;
9522;SDS011;63165;43.016;25.784;2022-10-16T05:03:15;68.45;;;25.98;;
9522;SDS011;63165;43.016;25.784;2022-10-16T05:05:42;66.80;;;24.75;;
9522;SDS011;63165;43.016;25.784;2022-10-16T05:08:11;67.47;;;27.55;;
9522;SDS011;63165;43.016;25.784;2022-10-16T05:10:38;63.03;;;25.88;;
9522;SDS011;63165;43.016;25.784;2022-10-16T05:13:05;66.38;;;25.92;;
9522;SDS011;63165;43.016;25.784;2022-10-16T05:15:33;88.75;;;33.40;;
9522;SDS011;63165;43.016;25.784;2022-10-16T05:18:01;68.63;;;28.45;;
9522;SDS011;63165;43.016;25.784;2022-10-16T05:20:29;65.55;;;27.75;;
9522;SDS011;63165;43.016;25.784;2022-10-16T05:22:56;49.55;;;19.92;;
9522;SDS011;63165;43.016;25.784;2022-10-16T05:25:23;54.13;;;19.33;;
9522;SDS011;63165;43.016;25.784;2022-10-16T05:27:51;51.38;;;20.35;;
9522;SDS011;63165;43.016;25.784;2022-10-16T05:30:18;42.00;;;16.27;;
9522;SDS011;63165;43.016;25.784;2022-10-16T05:32:48;42.67;;;15.60;;
9522;SDS011;63165;43.016;25.784;2022-10-16T05:35:18;46.22;;;17.58;;
9522;SDS011;63165;43.016;25.784;2022-10-16T05:37:46;42.35;;;16.50;;
9522;SDS011;63165;43.016;25.784;2022-10-16T05:40:13;39.67;;;16.00;;
9522;SDS011;63165;43.016;25.784;2022-10-16T05:42:42;41.40;;;14.98;;
9522;SDS011;63165;43.016;25.784;2022-10-16T05:45:09;42.97;;;15.45;;
9522;SDS011;63165;43.016;25.784;2022-10-16T05:47:38;49.65;;;17.70;;
9522;SDS011;63165;43.016;25.784;2022-10-16T05:50:05;40.67;;;16.55;;
9522;SDS011;63165;43.016;25.784;2022-10-16T05:52:34;39.03;;;15.80;;
9522;SDS011;63165;43.016;25.784;2022-10-16T05:55:02;48.30;;;15.88;;
9522;SDS011;63165;43.016;25.784;2022-10-16T05:57:29;42.00;;;15.93;;
9522;SDS011;63165;43.016;25.784;2022-10-16T05:59:56;48.30;;;18.33;;
9522;SDS011;63165;43.016;25.784;2022-10-16T06:02:24;56.10;;;21.00;;
9522;SDS011;63165;43.016;25.784;2022-10-16T06:04:51;75.22;;;28.05;;
9522;SDS011;63165;43.016;25.784;2022-10-16T06:07:19;79.32;;;29.95;;
9522;SDS011;63165;43.016;25.784;2022-10-16T06:09:49;78.43;;;25.23;;
9522;SDS011;63165;43.016;25.784;2022-10-16T06:12:16;72.93;;;27.02;;
9522;SDS011;63165;43.016;25.784;2022-10-16T06:14:44;84.90;;;27.98;;
9522;SDS011;63165;43.016;25.784;2022-10-16T06:17:12;89.45;;;28.80;;
9522;SDS011;63165;43.016;25.784;2022-10-16T06:19:39;109.57;;;34.60;;
9522;SDS011;63165;43.016;25.784;2022-10-16T06:22:06;100.63;;;32.47;;
9522;SDS011;63165;43.016;25.784;2022-10-16T06:24:33;89.32;;;31.52;;
9522;SDS011;63165;43.016;25.784;2022-10-16T06:27:02;84.47;;;27.58;;
9522;SDS011;63165;43.016;25.784;2022-10-16T06:29:30;78.28;;;27.80;;
9522;SDS011;63165;43.016;25.784;2022-10-16T06:31:57;97.43;;;30.95;;
9522;SDS011;63165;43.016;25.784;2022-10-16T06:34:24;50.20;;;17.15;;
9522;SDS011;63165;43.016;25.784;2022-10-16T06:36:52;32.50;;;12.43;;
9522;SDS011;63165;43.016;25.784;2022-10-16T06:39:19;34.78;;;12.38;;
9522;SDS011;63165;43.016;25.784;2022-10-16T06:41:46;32.33;;;12.90;;
9522;SDS011;63165;43.016;25.784;2022-10-16T06:44:15;30.85;;;11.68;;
9522;SDS011;63165;43.016;25.784;2022-10-16T06:46:42;25.77;;;10.52;;
9522;SDS011;63165;43.016;25.784;2022-10-16T06:49:09;25.92;;;10.18;;
9522;SDS011;63165;43.016;25.784;2022-10-16T06:51:36;26.83;;;10.93;;
9522;SDS011;63165;43.016;25.784;2022-10-16T06:54:06;29.27;;;10.43;;
9522;SDS011;63165;43.016;25.784;2022-10-16T06:56:33;35.38;;;14.25;;
9522;SDS011;63165;43.016;25.784;2022-10-16T06:59:01;30.30;;;13.02;;
9522;SDS011;63165;43.016;25.784;2022-10-16T07:01:30;30.98;;;12.15;;
9522;SDS011;63165;43.016;25.784;2022-10-16T07:03:57;32.65;;;11.95;;
9522;SDS011;63165;43.016;25.784;2022-10-16T07:06:25;28.40;;;10.00;;
9522;SDS011;63165;43.016;25.784;2022-10-16T07:08:53;31.45;;;10.68;;
9522;SDS011;63165;43.016;25.784;2022-10-16T07:11:21;33.25;;;11.15;;
9522;SDS011;63165;43.016;25.784;2022-10-16T07:13:50;38.88;;;13.50;;
9522;SDS011;63165;43.016;25.784;2022-10-16T07:16:18;32.15;;;11.57;;
9522;SDS011;63165;43.016;25.784;2022-10-16T07:18:48;28.17;;;11.00;;
9522;SDS011;63165;43.016;25.784;2022-10-16T07:21:17;25.10;;;9.82;;
9522;SDS011;63165;43.016;25.784;2022-10-16T07:23:45;38.33;;;12.35;;
9522;SDS011;63165;43.016;25.784;2022-10-16T07:26:17;29.65;;;10.93;;
9522;SDS011;63165;43.016;25.784;2022-10-16T07:28:44;38.38;;;10.93;;
9522;SDS011;63165;43.016;25.784;2022-10-16T07:31:12;23.65;;;8.55;;
9522;SDS011;63165;43.016;25.784;2022-10-16T07:33:40;22.20;;;9.13;;
9522;SDS011;63165;43.016;25.784;2022-10-16T07:36:11;18.60;;;7.93;;
9522;SDS011;63165;43.016;25.784;2022-10-16T07:38:38;31.52;;;8.30;;
9522;SDS011;63165;43.016;25.784;2022-10-16T07:41:08;16.45;;;7.25;;
9522;SDS011;63165;43.016;25.784;2022-10-16T07:43:37;25.13;;;9.30;;
9522;SDS011;63165;43.016;25.784;2022-10-16T07:46:04;31.20;;;8.57;;
9522;SDS011;63165;43.016;25.784;2022-10-16T07:48:32;17.67;;;7.88;;
9522;SDS011;63165;43.016;25.784;2022-10-16T07:51:01;21.02;;;7.53;;
9522;SDS011;63165;43.016;25.784;2022-10-16T07:53:32;23.42;;;9.13;;
9522;SDS011;63165;43.016;25.784;2022-10-16T07:56:00;26.33;;;8.10;;
9522;SDS011;63165;43.016;25.784;2022-10-16T07:58:29;19.67;;;7.55;;
9522;SDS011;63165;43.016;25.784;2022-10-16T08:00:57;19.58;;;8.10;;
9522;SDS011;63165;43.016;25.784;2022-10-16T08:03:25;23.80;;;9.15;;
9522;SDS011;63165;43.016;25.784;2022-10-16T08:05:52;24.38;;;8.40;;
9522;SDS011;63165;43.016;25.784;2022-10-16T08:08:19;21.63;;;8.63;;
9522;SDS011;63165;43.016;25.784;2022-10-16T08:10:48;20.13;;;7.57;;
9522;SDS011;63165;43.016;25.784;2022-10-16T08:13:15;18.50;;;7.40;;
9522;SDS011;63165;43.016;25.784;2022-10-16T08:15:43;14.23;;;7.38;;
9522;SDS011;63165;43.016;25.784;2022-10-16T08:18:10;20.08;;;7.40;;
9522;SDS011;63165;43.016;25.784;2022-10-16T08:20:38;18.52;;;7.30;;
9522;SDS011;63165;43.016;25.784;2022-10-16T08:23:06;24.77;;;7.40;;
9522;SDS011;63165;43.016;25.784;2022-10-16T08:25:34;17.02;;;6.70;;
9522;SDS011;63165;43.016;25.784;2022-10-16T08:28:04;18.83;;;6.97;;
9522;SDS011;63165;43.016;25.784;2022-10-16T08:30:32;15.50;;;6.68;;
9522;SDS011;63165;43.016;25.784;2022-10-16T08:33:00;21.10;;;7.28;;
9522;SDS011;63165;43.016;25.784;2022-10-16T08:35:28;15.63;;;6.80;;
9522;SDS011;63165;43.016;25.784;2022-10-16T08:37:55;16.83;;;7.18;;
9522;SDS011;63165;43.016;25.784;2022-10-16T08:40:24;14.93;;;6.10;;
9522;SDS011;63165;43.016;25.784;2022-10-16T08:42:56;18.25;;;6.43;;
9522;SDS011;63165;43.016;25.784;2022-10-16T08:45:48;14.48;;;6.72;;
9522;SDS011;63165;43.016;25.784;2022-10-16T08:48:33;18.17;;;6.40;;
9522;SDS011;63165;43.016;25.784;2022-10-16T08:51:09;19.35;;;6.65;;
9522;SDS011;63165;43.016;25.784;2022-10-16T08:53:43;19.73;;;7.00;;
9522;SDS011;63165;43.016;25.784;2022-10-16T08:56:13;21.17;;;6.75;;
9522;SDS011;63165;43.016;25.784;2022-10-16T08:58:40;17.08;;;6.78;;
9522;SDS011;63165;43.016;25.784;2022-10-16T09:01:12;16.48;;;6.78;;
9522;SDS011;63165;43.016;25.784;2022-10-16T09:03:46;24.30;;;7.57;;
9522;SDS011;63165;43.016;25.784;2022-10-16T09:06:27;18.92;;;6.35;;
9522;SDS011;63165;43.016;25.784;2022-10-16T09:09:06;15.52;;;5.32;;
9522;SDS011;63165;43.016;25.784;2022-10-16T09:14:25;19.25;;;7.10;;
9522;SDS011;63165;43.016;25.784;2022-10-16T09:17:07;20.70;;;6.90;;
9522;SDS011;63165;43.016;25.784;2022-10-16T09:19:49;30.20;;;6.30;;
9522;SDS011;63165;43.016;25.784;2022-10-16T09:22:22;16.38;;;5.93;;
9522;SDS011;63165;43.016;25.784;2022-10-16T09:24:54;14.15;;;5.13;;
9522;SDS011;63165;43.016;25.784;2022-10-16T09:27:26;16.05;;;5.68;;
9522;SDS011;63165;43.016;25.784;2022-10-16T09:29:53;16.30;;;5.47;;
9522;SDS011;63165;43.016;25.784;2022-10-16T09:32:22;13.65;;;4.95;;
9522;SDS011;63165;43.016;25.784;2022-10-16T09:34:51;12.32;;;4.70;;
9522;SDS011;63165;43.016;25.784;2022-10-16T09:37:22;10.80;;;5.15;;
9522;SDS011;63165;43.016;25.784;2022-10-16T09:39:51;10.23;;;3.80;;
9522;SDS011;63165;43.016;25.784;2022-10-16T09:42:20;14.02;;;4.63;;
9522;SDS011;63165;43.016;25.784;2022-10-16T09:44:49;15.88;;;4.55;;
9522;SDS011;63165;43.016;25.784;2022-10-16T09:47:19;12.85;;;4.70;;
9522;SDS011;63165;43.016;25.784;2022-10-16T09:49:51;17.90;;;4.90;;
9522;SDS011;63165;43.016;25.784;2022-10-16T09:52:20;14.88;;;4.72;;
9522;SDS011;63165;43.016;25.784;2022-10-16T09:54:51;14.50;;;4.75;;
9522;SDS011;63165;43.016;25.784;2022-10-16T09:57:20;10.40;;;4.60;;
9522;SDS011;63165;43.016;25.784;2022-10-16T09:59:48;14.35;;;5.22;;
9522;SDS011;63165;43.016;25.784;2022-10-16T10:02:16;18.40;;;5.03;;
9522;SDS011;63165;43.016;25.784;2022-10-16T10:04:49;17.08;;;4.78;;
9522;SDS011;63165;43.016;25.784;2022-10-16T10:07:20;16.15;;;4.90;;
9522;SDS011;63165;43.016;25.784;2022-10-16T10:09:52;15.85;;;4.65;;
9522;SDS011;63165;43.016;25.784;2022-10-16T10:12:21;13.73;;;5.15;;
9522;SDS011;63165;43.016;25.784;2022-10-16T10:14:50;16.55;;;4.88;;
9522;SDS011;63165;43.016;25.784;2022-10-16T10:17:20;14.95;;;4.60;;
9522;SDS011;63165;43.016;25.784;2022-10-16T10:19:52;11.30;;;4.97;;
9522;SDS011;63165;43.016;25.784;2022-10-16T10:22:25;16.98;;;4.97;;
9522;SDS011;63165;43.016;25.784;2022-10-16T10:27:48;12.50;;;4.88;;
9522;SDS011;63165;43.016;25.784;2022-10-16T10:30:27;16.85;;;5.07;;
9522;SDS011;63165;43.016;25.784;2022-10-16T10:35:39;14.43;;;4.85;;
9522;SDS011;63165;43.016;25.784;2022-10-16T10:38:16;12.07;;;4.55;;
9522;SDS011;63165;43.016;25.784;2022-10-16T10:40:54;17.30;;;4.60;;
9522;SDS011;63165;43.016;25.784;2022-10-16T10:43:32;14.57;;;4.95;;
9522;SDS011;63165;43.016;25.784;2022-10-16T10:46:14;15.25;;;4.60;;
9522;SDS011;63165;43.016;25.784;2022-10-16T10:48:51;16.02;;;5.03;;
9522;SDS011;63165;43.016;25.784;2022-10-16T10:51:29;15.15;;;4.25;;
9522;SDS011;63165;43.016;25.784;2022-10-16T10:54:04;12.23;;;4.90;;
9522;SDS011;63165;43.016;25.784;2022-10-16T10:56:42;21.63;;;5.40;;
9522;SDS011;63165;43.016;25.784;2022-10-16T10:59:28;13.52;;;4.90;;
9522;SDS011;63165;43.016;25.784;2022-10-16T11:02:12;12.65;;;4.93;;
9522;SDS011;63165;43.016;25.784;2022-10-16T11:07:57;13.32;;;4.57;;
9522;SDS011;63165;43.016;25.784;2022-10-16T11:10:27;19.33;;;6.37;;
9522;SDS011;63165;43.016;25.784;2022-10-16T11:13:00;13.65;;;4.57;;
9522;SDS011;63165;43.016;25.784;2022-10-16T11:15:37;12.32;;;6.30;;
9522;SDS011;63165;43.016;25.784;2022-10-16T11:18:08;9.15;;;4.55;;
9522;SDS011;63165;43.016;25.784;2022-10-16T11:20:40;13.05;;;6.05;;
9522;SDS011;63165;43.016;25.784;2022-10-16T11:23:14;22.38;;;7.90;;
9522;SDS011;63165;43.016;25.784;2022-10-16T11:25:47;29.98;;;12.05;;
9522;SDS011;63165;43.016;25.784;2022-10-16T11:28:16;15.63;;;4.78;;
9522;SDS011;63165;43.016;25.784;2022-10-16T11:30:47;15.85;;;6.00;;
9522;SDS011;63165;43.016;25.784;2022-10-16T11:33:22;15.90;;;4.97;;
9522;SDS011;63165;43.016;25.784;2022-10-16T11:35:58;11.52;;;4.57;;
9522;SDS011;63165;43.016;25.784;2022-10-16T11:38:32;15.55;;;4.43;;
9522;SDS011;63165;43.016;25.784;2022-10-16T11:41:09;12.60;;;4.65;;
9522;SDS011;63165;43.016;25.784;2022-10-16T11:43:48;17.23;;;4.32;;
9522;SDS011;63165;43.016;25.784;2022-10-16T11:46:24;22.50;;;7.35;;
9522;SDS011;63165;43.016;25.784;2022-10-16T11:48:55;70.55;;;25.23;;
9522;SDS011;63165;43.016;25.784;2022-10-16T11:51:30;14.45;;;5.32;;
9522;SDS011;63165;43.016;25.784;2022-10-16T11:54:04;24.20;;;6.53;;
9522;SDS011;63165;43.016;25.784;2022-10-16T11:56:41;17.27;;;5.55;;
9522;SDS011;63165;43.016;25.784;2022-10-16T11:59:13;9.00;;;4.00;;
9522;SDS011;63165;43.016;25.784;2022-10-16T12:01:49;14.82;;;7.30;;
9522;SDS011;63165;43.016;25.784;2022-10-16T12:04:22;15.75;;;5.15;;
9522;SDS011;63165;43.016;25.784;2022-10-16T12:06:58;20.30;;;7.82;;
9522;SDS011;63165;43.016;25.784;2022-10-16T12:09:32;18.80;;;5.00;;
9522;SDS011;63165;43.016;25.784;2022-10-16T12:12:03;13.70;;;4.28;;
9522;SDS011;63165;43.016;25.784;2022-10-16T12:14:36;13.60;;;4.32;;
9522;SDS011;63165;43.016;25.784;2022-10-16T12:19:57;10.70;;;3.83;;
9522;SDS011;63165;43.016;25.784;2022-10-16T12:22:27;14.32;;;4.97;;
9522;SDS011;63165;43.016;25.784;2022-10-16T12:24:58;9.00;;;3.38;;
9522;SDS011;63165;43.016;25.784;2022-10-16T12:27:27;12.38;;;3.83;;
9522;SDS011;63165;43.016;25.784;2022-10-16T12:29:57;12.32;;;3.88;;
9522;SDS011;63165;43.016;25.784;2022-10-16T12:32:30;12.05;;;4.75;;
9522;SDS011;63165;43.016;25.784;2022-10-16T12:37:28;11.15;;;4.25;;
9522;SDS011;63165;43.016;25.784;2022-10-16T12:39:59;12.30;;;3.92;;
9522;SDS011;63165;43.016;25.784;2022-10-16T12:42:39;16.42;;;4.05;;
9522;SDS011;63165;43.016;25.784;2022-10-16T12:45:21;11.05;;;4.85;;
9522;SDS011;63165;43.016;25.784;2022-10-16T12:47:53;12.05;;;4.93;;
9522;SDS011;63165;43.016;25.784;2022-10-16T12:50:26;16.90;;;5.22;;
9522;SDS011;63165;43.016;25.784;2022-10-16T12:52:58;13.02;;;4.53;;
9522;SDS011;63165;43.016;25.784;2022-10-16T12:55:30;15.73;;;7.28;;
9522;SDS011;63165;43.016;25.784;2022-10-16T12:58:13;16.17;;;6.60;;
9522;SDS011;63165;43.016;25.784;2022-10-16T13:00:54;10.15;;;4.75;;
9522;SDS011;63165;43.016;25.784;2022-10-16T13:06:27;11.93;;;4.55;;
9522;SDS011;63165;43.016;25.784;2022-10-16T13:09:14;14.98;;;5.75;;
9522;SDS011;63165;43.016;25.784;2022-10-16T13:17:37;10.77;;;4.53;;
9522;SDS011;63165;43.016;25.784;2022-10-16T13:20:14;14.00;;;5.05;;
9522;SDS011;63165;43.016;25.784;2022-10-16T13:22:50;17.83;;;5.93;;
9522;SDS011;63165;43.016;25.784;2022-10-16T13:25:26;13.43;;;5.25;;
9522;SDS011;63165;43.016;25.784;2022-10-16T13:28:04;15.98;;;4.75;;
9522;SDS011;63165;43.016;25.784;2022-10-16T13:30:35;11.55;;;4.50;;
9522;SDS011;63165;43.016;25.784;2022-10-16T13:33:06;17.83;;;5.65;;
9522;SDS011;63165;43.016;25.784;2022-10-16T13:38:14;20.33;;;5.28;;
9522;SDS011;63165;43.016;25.784;2022-10-16T13:40:51;11.23;;;4.45;;
9522;SDS011;63165;43.016;25.784;2022-10-16T13:43:22;19.70;;;7.97;;
9522;SDS011;63165;43.016;25.784;2022-10-16T13:45:52;10.70;;;3.90;;
9522;SDS011;63165;43.016;25.784;2022-10-16T13:48:23;16.65;;;4.32;;
9522;SDS011;63165;43.016;25.784;2022-10-16T13:51:10;16.95;;;6.43;;
9522;SDS011;63165;43.016;25.784;2022-10-16T13:53:39;10.23;;;4.38;;
9522;SDS011;63165;43.016;25.784;2022-10-16T13:56:09;11.50;;;4.82;;
9522;SDS011;63165;43.016;25.784;2022-10-16T13:58:40;13.35;;;4.90;;
9522;SDS011;63165;43.016;25.784;2022-10-16T14:01:15;14.05;;;4.60;;
9522;SDS011;63165;43.016;25.784;2022-10-16T14:03:43;10.90;;;4.40;;
9522;SDS011;63165;43.016;25.784;2022-10-16T14:06:12;15.60;;;5.10;;
9522;SDS011;63165;43.016;25.784;2022-10-16T14:08:43;12.05;;;4.25;;
9522;SDS011;63165;43.016;25.784;2022-10-16T14:11:20;10.60;;;3.88;;
9522;SDS011;63165;43.016;25.784;2022-10-16T14:13:50;8.38;;;4.30;;
9522;SDS011;63165;43.016;25.784;2022-10-16T14:16:18;20.48;;;4.90;;
9522;SDS011;63165;43.016;25.784;2022-10-16T14:18:50;10.43;;;4.68;;
9522;SDS011;63165;43.016;25.784;2022-10-16T14:21:22;13.63;;;5.43;;
9522;SDS011;63165;43.016;25.784;2022-10-16T14:23:50;31.73;;;7.43;;
9522;SDS011;63165;43.016;25.784;2022-10-16T14:26:18;16.50;;;4.78;;
9522;SDS011;63165;43.016;25.784;2022-10-16T14:28:48;12.30;;;4.55;;
9522;SDS011;63165;43.016;25.784;2022-10-16T14:31:29;28.88;;;10.57;;
9522;SDS011;63165;43.016;25.784;2022-10-16T14:33:57;132.93;;;45.00;;
9522;SDS011;63165;43.016;25.784;2022-10-16T14:36:26;106.88;;;35.60;;
9522;SDS011;63165;43.016;25.784;2022-10-16T14:38:58;82.15;;;29.13;;
9522;SDS011;63165;43.016;25.784;2022-10-16T14:41:28;137.13;;;41.67;;
9522;SDS011;63165;43.016;25.784;2022-10-16T14:44:00;102.15;;;34.92;;
9522;SDS011;63165;43.016;25.784;2022-10-16T14:46:31;134.40;;;42.45;;
9522;SDS011;63165;43.016;25.784;2022-10-16T14:49:15;174.45;;;55.03;;
9522;SDS011;63165;43.016;25.784;2022-10-16T14:51:45;44.30;;;15.13;;
9522;SDS011;63165;43.016;25.784;2022-10-16T14:54:12;64.43;;;23.15;;
9522;SDS011;63165;43.016;25.784;2022-10-16T14:56:43;30.48;;;11.55;;
9522;SDS011;63165;43.016;25.784;2022-10-16T14:59:15;39.50;;;15.45;;
9522;SDS011;63165;43.016;25.784;2022-10-16T15:01:45;43.30;;;15.57;;
9522;SDS011;63165;43.016;25.784;2022-10-16T15:04:13;31.20;;;12.70;;
9522;SDS011;63165;43.016;25.784;2022-10-16T15:06:41;21.73;;;9.85;;
9522;SDS011;63165;43.016;25.784;2022-10-16T15:09:09;47.80;;;8.80;;
9522;SDS011;63165;43.016;25.784;2022-10-16T15:11:36;38.55;;;8.80;;
9522;SDS011;63165;43.016;25.784;2022-10-16T15:14:04;19.55;;;7.35;;
9522;SDS011;63165;43.016;25.784;2022-10-16T15:16:33;21.17;;;6.78;;
9522;SDS011;63165;43.016;25.784;2022-10-16T15:19:00;17.02;;;6.13;;
9522;SDS011;63165;43.016;25.784;2022-10-16T15:21:29;16.33;;;5.72;;